Somerset, CA (95684)

12:24 PM PST on February 27, 2017 (GMT -0800)
Tennessee Creek | | Change Station
Active Advisory: Hydrologic Statement

Elev 2943 ft 38.63 °N, 120.60 °W | Updated 7 seconds ago

Partly Cloudy
Partly Cloudy
41.7 °F
Feels Like 42 °F
N
0.0
Wind Variable Wind from West
Gusts 0.0 mph

Today
High -- | Low -- °F
--% Chance of Precip.
Yesterday
High -- | Low -- °F
Precip. -- in
Pressure 29.92 in
Visibility 10.0 miles
Clouds Few 2900 ft
Mostly Cloudy 3900 ft
Windchill 42 °F
Dew Point 30 °F
Humidity 63%
Rainfall 0.37 in
Snow Depth Not available.
6:37 AM 5:53 PM
New Moon, 2% visible
METAR KPVF 272015Z AUTO 20003KT 10SM FEW029 BKN039 06/M03 A2992 RMK AO1
Pressure 29.92 in
Visibility 10.0 miles
Clouds Few 2900 ft
Mostly Cloudy 3900 ft
Windchill 42 °F
Dew Point 30 °F
Humidity 63%
Rainfall 0.37 in
Snow Depth Not available.
6:37 AM 5:53 PM
New Moon, 2% visible
METAR KPVF 272015Z AUTO 20003KT 10SM FEW029 BKN039 06/M03 A2992 RMK AO1

Get Your Daily Forecast Email!

Thanks for signing up!

Be on the lookout for a verification email in your inbox.

You'll start receiving the daily forecast at 8 AM.

×

10-Day Weather Forecast

Almanac

Astronomy

Feb. 27, 2017 Rise Set
Actual Time
Civil Twilight
Nautical Twilight
Astronomical Twilight
Moon
Length of Visible Light
Length of Day
Tomorrow will be .
, % of the Moon is Illuminated

Today's Extremes

State Highs State Lows

Community

WunderPhotos

Upload Photos

1,962,540 photos uploaded!

WunderBlog® & News

Nearby

Air Quality

  Air Quality AQ Index Pollutant
Not available.

Snow Depth

Station Depth Elevation

Earthquake Activity

City Distance Mag. Time & Date
Minimum magnitude displayed is 2.5.

Coastal Water Temperatures

Place Temperature

Stations

Nearby Weather Stations

Station Location Temp. Windchill Dew Point Humidity Wind Precip. Elev Updated Type
                   

Watches & Warnings

Hydrologic Statement
Issued: 9:09 AM PST Feb. 27, 2017 – National Weather Service

Forecast information for
feather river near Nicolaus.
* At 8:15 am Monday the stage was 40.6 feet.
* Forecast to fluctuate near 41.0 ft thru this evening then forecast
to fall below monitor stage of 39.0 ft late tomorrow morning then
forecast to recede to near 39.0 ft late tomorrow morning.
* Flood stage 47.0 ft
* monitor stage 39.0 ft


&&

Lat... Lon 3897 12165 3903 12149 3884 12150 3876 12168